Time;durP1;ratioP1;P1;durP2;ratioP2;P2;SDS_P1;SDS_P2;PMS_P1;PMS_P2;Temp;Humidity;BMP_temperature;BMP_pressure;BME280_temperature;BME280_humidity;BME280_pressure;Samples;Min_cycle;Max_cycle;Signal;HPM_P1;HPM_P2
2023/01/09 00:00:50;;;;;;;2.63;2.43;;;8.20;99.90;;;;;;4975513;28;20175;-77
2023/01/09 00:03:16;;;;;;;2.67;2.37;;;8.20;99.90;;;;;;4993498;28;20180;-78
2023/01/09 00:05:41;;;;;;;3.67;2.80;;;8.10;99.90;;;;;;4993626;28;20172;-77
2023/01/09 00:08:07;;;;;;;3.03;2.50;;;8.10;99.90;;;;;;4975490;28;20242;-77
2023/01/09 00:10:32;;;;;;;3.23;2.93;;;8.10;99.90;;;;;;4975358;28;20200;-77
2023/01/09 00:12:58;;;;;;;3.13;2.70;;;8.10;99.90;;;;;;4975685;28;20195;-77
2023/01/09 00:15:24;;;;;;;2.90;2.70;;;8.10;99.90;;;;;;4992961;28;20183;-77
2023/01/09 00:17:49;;;;;;;3.17;2.87;;;8.00;99.90;;;;;;4976153;28;20176;-77
2023/01/09 00:20:15;;;;;;;4.23;3.50;;;8.00;99.90;;;;;;4975502;28;20179;-78
2023/01/09 00:22:41;;;;;;;4.30;3.47;;;8.00;99.90;;;;;;4975687;28;20199;-77
2023/01/09 00:25:07;;;;;;;4.03;3.27;;;8.00;99.90;;;;;;4975483;28;20267;-77
2023/01/09 00:27:33;;;;;;;3.77;3.40;;;7.90;99.90;;;;;;4993131;28;20180;-77
2023/01/09 00:29:59;;;;;;;3.80;3.10;;;7.90;99.90;;;;;;4975306;28;20572;-77
2023/01/09 00:32:27;;;;;;;3.83;3.40;;;7.80;99.90;;;;;;4975459;28;20233;-78
2023/01/09 00:34:53;;;;;;;3.93;3.53;;;7.80;99.90;;;;;;4975773;28;20174;-78
2023/01/09 00:37:19;;;;;;;4.07;3.63;;;7.70;99.90;;;;;;4975798;28;20171;-77
2023/01/09 00:39:44;;;;;;;4.80;4.03;;;7.60;99.90;;;;;;4975385;28;20214;-78
2023/01/09 00:42:15;;;;;;;5.00;4.23;;;7.60;99.90;;;;;;4975657;28;20211;-78
2023/01/09 00:44:51;;;;;;;5.23;3.73;;;7.50;99.90;;;;;;4975694;28;20179;-77
2023/01/09 00:47:34;;;;;;;5.13;4.23;;;7.50;99.90;;;;;;4975987;28;20554;-77
2023/01/09 00:50:03;;;;;;;4.83;4.10;;;7.40;99.90;;;;;;4992586;28;20261;-78
2023/01/09 00:52:31;;;;;;;5.20;4.10;;;7.40;99.90;;;;;;4993105;28;20273;-78
2023/01/09 00:54:58;;;;;;;5.17;4.07;;;7.30;99.90;;;;;;4975466;28;20622;-78
2023/01/09 00:57:23;;;;;;;5.30;4.10;;;7.30;99.90;;;;;;4975848;28;20266;-77
2023/01/09 00:59:50;;;;;;;4.50;4.00;;;7.30;99.90;;;;;;4992572;28;20249;-77
2023/01/09 01:02:16;;;;;;;4.70;4.20;;;7.20;99.90;;;;;;5025493;22;20230;-82
2023/01/09 01:07:37;;;;;;;4.33;3.90;;;7.20;99.90;;;;;;5012171;28;20284;-81
2023/01/09 01:10:12;;;;;;;4.33;3.93;;;7.20;99.90;;;;;;4994320;28;20214;-82
2023/01/09 01:12:38;;;;;;;4.03;3.60;;;7.20;99.90;;;;;;5012026;28;20198;-81
2023/01/09 01:15:05;;;;;;;4.43;3.57;;;7.20;99.90;;;;;;4994301;28;20171;-81
2023/01/09 01:17:34;;;;;;;4.70;3.43;;;7.20;99.90;;;;;;5012044;28;20179;-82
2023/01/09 01:20:00;;;;;;;3.13;2.80;;;7.20;99.90;;;;;;5014279;28;20170;-81
2023/01/09 01:22:25;;;;;;;3.50;2.83;;;7.20;99.90;;;;;;5015794;28;20208;-81
2023/01/09 01:24:51;;;;;;;3.20;2.90;;;7.20;99.90;;;;;;4998083;28;20746;-82
2023/01/09 01:27:16;;;;;;;3.37;3.07;;;7.20;99.90;;;;;;4998214;28;20563;-82
2023/01/09 01:29:42;;;;;;;3.07;2.67;;;7.20;99.90;;;;;;4997714;28;20203;-81
2023/01/09 01:32:08;;;;;;;3.43;2.80;;;7.20;99.90;;;;;;5015198;28;20195;-82
2023/01/09 01:34:33;;;;;;;3.23;2.60;;;7.20;99.90;;;;;;4997867;28;20206;-81
2023/01/09 01:36:59;;;;;;;3.00;2.40;;;7.20;99.90;;;;;;4997978;28;20257;-81
2023/01/09 01:39:24;;;;;;;2.87;2.40;;;7.20;99.90;;;;;;5015413;28;20254;-82
2023/01/09 01:41:50;;;;;;;2.40;2.20;;;7.20;99.90;;;;;;4997296;28;20221;-81
2023/01/09 01:44:53;;;;;;;2.60;2.40;;;7.20;99.90;;;;;;4997508;28;20242;-81
2023/01/09 01:47:21;;;;;;;2.90;2.60;;;7.10;99.90;;;;;;5014801;28;20297;-81
2023/01/09 01:49:47;;;;;;;2.60;2.40;;;7.10;99.90;;;;;;4997472;28;20206;-82
2023/01/09 01:52:14;;;;;;;2.60;2.30;;;7.10;99.90;;;;;;4997265;28;20251;-82
2023/01/09 01:54:40;;;;;;;2.63;2.40;;;7.10;99.90;;;;;;4997525;28;20174;-81
2023/01/09 01:57:06;;;;;;;2.50;2.30;;;7.10;99.90;;;;;;4997481;28;20198;-82
2023/01/09 01:59:36;;;;;;;2.50;2.30;;;7.10;99.90;;;;;;4997133;28;20182;-81
2023/01/09 02:02:03;;;;;;;2.53;2.30;;;7.10;99.90;;;;;;4996925;28;20213;-82
2023/01/09 02:04:31;;;;;;;2.60;2.30;;;7.10;99.90;;;;;;4997109;28;20583;-81
2023/01/09 02:07:00;;;;;;;2.60;2.20;;;7.10;99.90;;;;;;5014788;28;20206;-82
2023/01/09 02:09:25;;;;;;;2.63;2.07;;;7.10;99.90;;;;;;5015000;28;20293;-82
2023/01/09 02:11:55;;;;;;;2.30;2.10;;;7.10;99.90;;;;;;5014252;28;20233;-81
2023/01/09 02:14:24;;;;;;;2.00;1.77;;;7.10;99.90;;;;;;5014429;28;20186;-81
2023/01/09 02:16:53;;;;;;;2.07;1.87;;;7.10;99.90;;;;;;4996908;28;20175;-82
2023/01/09 02:19:52;;;;;;;2.10;1.70;;;7.20;99.90;;;;;;4997013;28;20268;-81
2023/01/09 02:22:44;;;;;;;3.30;1.60;;;7.10;99.90;;;;;;5014362;28;20190;-82
2023/01/09 02:25:34;;;;;;;1.60;1.50;;;7.10;99.90;;;;;;5014388;28;20178;-82
2023/01/09 02:28:18;;;;;;;2.33;1.50;;;7.20;99.90;;;;;;4996352;28;20197;-81
2023/01/09 02:30:48;;;;;;;1.50;1.40;;;7.20;99.90;;;;;;4985163;28;20195;-81
2023/01/09 02:33:27;;;;;;;1.57;1.40;;;7.20;99.90;;;;;;4994564;28;20230;-82
2023/01/09 02:36:25;;;;;;;2.40;1.33;;;7.20;99.90;;;;;;4985145;28;20213;-81
2023/01/09 02:39:30;;;;;;;1.70;1.50;;;7.10;99.90;;;;;;4993385;28;20179;-82
2023/01/09 02:42:18;;;;;;;1.50;1.40;;;7.10;99.90;;;;;;5005179;28;20205;-82
2023/01/09 02:44:43;;;;;;;1.50;1.40;;;7.10;99.90;;;;;;5006986;28;20184;-82
2023/01/09 02:47:15;;;;;;;1.83;1.60;;;7.10;99.90;;;;;;4996244;28;20181;-81
2023/01/09 02:50:10;;;;;;;1.40;1.30;;;7.10;99.90;;;;;;5009370;28;20191;-81
2023/01/09 02:53:04;;;;;;;1.30;1.20;;;7.10;99.90;;;;;;4992332;28;20200;-81
2023/01/09 02:55:48;;;;;;;1.50;1.40;;;7.10;99.90;;;;;;4994082;28;20645;-82
2023/01/09 02:59:12;;;;;;;1.37;1.27;;;7.10;99.90;;;;;;4976697;28;20177;-82
2023/01/09 03:01:50;;;;;;;1.77;1.50;;;7.10;99.90;;;;;;4933712;29;20209;-82
2023/01/09 03:04:44;;;;;;;1.40;1.27;;;7.10;99.90;;;;;;4969469;28;20689;-80
2023/01/09 03:07:36;;;;;;;2.20;2.00;;;7.20;99.90;;;;;;4976585;28;20206;-82
2023/01/09 03:10:34;;;;;;;1.30;1.20;;;7.20;99.90;;;;;;4976682;28;20298;-82
2023/01/09 03:13:02;;;;;;;1.63;1.40;;;7.10;99.90;;;;;;4975954;28;20217;-82
2023/01/09 03:15:32;;;;;;;1.50;1.23;;;7.10;99.90;;;;;;4993945;28;20177;-82
2023/01/09 03:17:59;;;;;;;1.30;1.20;;;7.10;99.90;;;;;;4976196;28;20213;-81
2023/01/09 03:20:28;;;;;;;2.10;1.23;;;7.10;99.90;;;;;;4976090;28;20183;-81
2023/01/09 03:22:59;;;;;;;2.13;1.40;;;7.10;99.90;;;;;;4993050;28;20292;-82
2023/01/09 03:25:26;;;;;;;1.40;1.30;;;7.10;99.90;;;;;;4993222;28;20212;-81
2023/01/09 03:27:57;;;;;;;2.67;1.50;;;7.10;99.90;;;;;;4974819;28;20187;-79
2023/01/09 03:30:24;;;;;;;1.50;1.40;;;7.00;99.90;;;;;;4993592;28;20326;-82
2023/01/09 03:32:50;;;;;;;1.50;1.40;;;7.10;99.90;;;;;;4990124;28;20710;-81
2023/01/09 03:35:15;;;;;;;1.53;1.43;;;7.00;99.90;;;;;;4992741;28;20178;-82
2023/01/09 03:37:41;;;;;;;1.80;1.43;;;7.00;99.90;;;;;;5011855;28;20173;-82
2023/01/09 03:40:07;;;;;;;1.60;1.50;;;7.10;99.90;;;;;;5011802;28;20311;-82
2023/01/09 03:42:33;;;;;;;1.70;1.53;;;7.10;99.90;;;;;;4994739;28;20209;-82
2023/01/09 03:44:58;;;;;;;1.60;1.50;;;7.10;99.90;;;;;;4995389;28;20551;-82
2023/01/09 03:47:24;;;;;;;2.07;1.80;;;7.20;99.90;;;;;;4995643;28;20174;-82
2023/01/09 03:49:49;;;;;;;2.30;1.60;;;7.20;99.90;;;;;;4995025;28;20329;-82
2023/01/09 03:52:15;;;;;;;1.80;1.70;;;7.20;99.90;;;;;;4995291;28;20202;-81
2023/01/09 03:54:40;;;;;;;2.47;1.90;;;7.20;99.90;;;;;;4995267;28;20724;-82
2023/01/09 03:57:06;;;;;;;1.97;1.77;;;7.20;99.90;;;;;;4995101;28;20622;-82
2023/01/09 03:59:31;;;;;;;2.10;1.90;;;7.30;99.90;;;;;;5012674;28;20194;-82
2023/01/09 04:01:57;;;;;;;1.77;1.67;;;7.30;99.90;;;;;;5012360;28;20209;-82
2023/01/09 04:04:22;;;;;;;1.80;1.67;;;7.20;99.90;;;;;;4995261;28;20182;-82
2023/01/09 04:06:48;;;;;;;1.80;1.70;;;7.20;99.90;;;;;;4995161;28;20243;-82
2023/01/09 04:09:13;;;;;;;1.60;1.50;;;7.20;99.90;;;;;;4995032;28;20213;-82
2023/01/09 04:11:39;;;;;;;1.80;1.50;;;7.20;99.90;;;;;;5012287;28;20186;-82
2023/01/09 04:14:05;;;;;;;1.50;1.40;;;7.20;99.90;;;;;;4995268;28;20184;-82
2023/01/09 04:16:30;;;;;;;1.73;1.40;;;7.20;99.90;;;;;;4994773;28;20600;-82
2023/01/09 04:18:56;;;;;;;1.47;1.27;;;7.20;99.90;;;;;;4995127;28;20604;-82
2023/01/09 04:21:21;;;;;;;1.10;1.00;;;7.20;99.90;;;;;;5012337;28;20174;-82
2023/01/09 04:23:47;;;;;;;1.10;1.00;;;7.20;99.90;;;;;;5012308;28;20170;-82
2023/01/09 04:26:12;;;;;;;1.37;1.20;;;7.20;99.90;;;;;;5012321;28;20194;-82
2023/01/09 04:28:38;;;;;;;1.20;1.10;;;7.20;99.90;;;;;;4994670;28;20174;-82
2023/01/09 04:31:04;;;;;;;1.10;1.00;;;7.20;99.90;;;;;;4994515;28;20198;-82
2023/01/09 04:33:29;;;;;;;1.27;1.10;;;7.20;99.90;;;;;;5012424;28;20197;-81
2023/01/09 04:35:55;;;;;;;1.10;1.00;;;7.20;99.90;;;;;;5012448;28;20170;-82
2023/01/09 04:38:21;;;;;;;1.10;1.00;;;7.20;99.90;;;;;;5012640;28;20198;-82
2023/01/09 04:40:47;;;;;;;1.50;1.03;;;7.10;99.90;;;;;;4994590;28;20245;-82
2023/01/09 04:43:13;;;;;;;1.00;0.90;;;7.20;99.90;;;;;;4994569;28;20198;-82
2023/01/09 04:45:39;;;;;;;1.20;1.10;;;7.20;99.90;;;;;;5012388;28;20208;-82
2023/01/09 04:48:05;;;;;;;1.30;1.20;;;7.20;99.90;;;;;;4994626;28;20178;-82
2023/01/09 04:50:30;;;;;;;1.43;1.30;;;7.20;99.90;;;;;;5011915;28;20260;-82
2023/01/09 04:52:56;;;;;;;1.43;1.07;;;7.20;99.90;;;;;;5012100;28;20193;-82
2023/01/09 04:55:22;;;;;;;1.33;1.20;;;7.20;99.90;;;;;;5015339;28;20167;-82
2023/01/09 04:57:47;;;;;;;1.30;1.20;;;7.30;99.90;;;;;;5015945;28;20184;-82
2023/01/09 05:00:13;;;;;;;1.67;1.20;;;7.20;99.90;;;;;;4998291;28;20179;-82
2023/01/09 05:02:39;;;;;;;1.30;1.20;;;7.20;99.90;;;;;;5015816;28;20611;-82
2023/01/09 05:05:06;;;;;;;1.27;1.17;;;7.20;99.90;;;;;;4998456;28;20186;-82
2023/01/09 05:07:32;;;;;;;1.40;1.30;;;7.20;99.90;;;;;;5015912;28;20599;-82
2023/01/09 05:09:57;;;;;;;1.43;1.33;;;7.20;99.90;;;;;;5015525;28;20295;-81
2023/01/09 05:12:23;;;;;;;1.40;1.30;;;7.10;99.90;;;;;;5015675;28;20228;-82
2023/01/09 05:14:49;;;;;;;1.57;1.20;;;7.10;99.90;;;;;;4998022;28;20221;-81
2023/01/09 05:17:14;;;;;;;1.47;1.33;;;7.20;99.90;;;;;;4998291;28;20179;-82
2023/01/09 05:19:40;;;;;;;1.30;1.20;;;7.10;99.90;;;;;;4998179;28;20194;-81
2023/01/09 05:22:05;;;;;;;1.90;1.20;;;7.00;99.90;;;;;;4997911;28;20292;-82
2023/01/09 05:24:31;;;;;;;1.23;1.13;;;7.00;99.90;;;;;;5015534;28;20534;-82
2023/01/09 05:26:57;;;;;;;1.23;1.13;;;7.00;99.90;;;;;;5015529;28;20189;-82
2023/01/09 05:29:22;;;;;;;0.90;0.90;;;7.00;99.90;;;;;;4997892;28;20210;-82
2023/01/09 05:31:48;;;;;;;1.20;1.10;;;7.00;99.90;;;;;;4997924;28;20198;-82
2023/01/09 05:34:13;;;;;;;1.23;1.00;;;6.90;99.90;;;;;;5015392;28;20179;-81
2023/01/09 05:36:39;;;;;;;0.90;0.90;;;6.90;99.90;;;;;;5015267;28;20174;-82
2023/01/09 05:39:05;;;;;;;0.70;0.70;;;6.90;99.90;;;;;;5015220;28;20256;-82
2023/01/09 05:41:31;;;;;;;0.67;0.63;;;6.90;99.90;;;;;;4997417;28;20187;-82
2023/01/09 05:43:57;;;;;;;0.70;0.70;;;6.90;99.90;;;;;;5014959;28;20247;-82
2023/01/09 05:46:22;;;;;;;0.70;0.70;;;6.80;99.90;;;;;;4997722;28;20180;-84
2023/01/09 05:48:48;;;;;;;0.80;0.57;;;6.80;99.90;;;;;;4996830;28;20192;-82
2023/01/09 05:51:13;;;;;;;0.97;0.87;;;6.90;99.90;;;;;;4989090;28;20229;-82
2023/01/09 05:53:39;;;;;;;0.80;0.80;;;6.80;99.90;;;;;;4997599;28;20182;-82
2023/01/09 05:56:05;;;;;;;1.27;1.00;;;6.90;99.90;;;;;;4997302;28;20264;-82
2023/01/09 05:58:30;;;;;;;0.70;0.70;;;6.90;99.90;;;;;;4997221;28;20183;-83
2023/01/09 06:00:57;;;;;;;0.80;0.80;;;6.80;99.90;;;;;;5014975;28;20267;-84
2023/01/09 06:03:22;;;;;;;0.83;0.70;;;6.80;99.90;;;;;;5014672;28;20221;-82
2023/01/09 06:05:48;;;;;;;2.43;0.80;;;6.80;99.90;;;;;;5009267;28;20238;-87
2023/01/09 06:08:14;;;;;;;0.90;0.80;;;6.80;99.90;;;;;;5012179;28;20562;-80
2023/01/09 06:10:39;;;;;;;0.70;0.70;;;6.80;99.90;;;;;;4997219;28;20257;-82
2023/01/09 06:13:05;;;;;;;1.00;0.60;;;6.80;99.90;;;;;;4997063;28;20226;-81
2023/01/09 06:15:30;;;;;;;2.00;0.60;;;6.70;99.90;;;;;;5014851;28;20185;-82
2023/01/09 06:17:56;;;;;;;0.60;0.60;;;6.70;99.90;;;;;;4997020;28;20264;-82
2023/01/09 06:20:21;;;;;;;1.20;0.70;;;6.60;99.90;;;;;;4996750;28;20188;-82
2023/01/09 06:22:50;;;;;;;0.80;0.73;;;6.60;99.90;;;;;;4996882;28;20212;-83
2023/01/09 06:25:16;;;;;;;1.10;0.90;;;6.60;99.90;;;;;;4997001;28;20227;-82
2023/01/09 06:27:42;;;;;;;1.93;1.30;;;6.60;99.90;;;;;;4996720;28;20186;-82
2023/01/09 06:30:08;;;;;;;1.67;0.83;;;6.50;99.90;;;;;;5014398;28;20608;-83
2023/01/09 06:32:33;;;;;;;1.00;0.70;;;6.50;99.90;;;;;;4996601;28;20633;-81
2023/01/09 06:34:59;;;;;;;0.90;0.90;;;6.50;99.90;;;;;;4996871;28;20268;-81
2023/01/09 06:37:24;;;;;;;0.60;0.60;;;6.50;99.90;;;;;;4996502;28;20174;-81
2023/01/09 06:39:50;;;;;;;13.87;8.40;;;6.40;99.90;;;;;;4996613;28;20184;-80
2023/01/09 06:42:15;;;;;;;1.30;1.20;;;6.40;99.90;;;;;;5014106;28;20280;-80
2023/01/09 06:44:41;;;;;;;0.77;0.67;;;6.70;99.90;;;;;;4996506;28;20241;-81
2023/01/09 06:47:07;;;;;;;0.63;0.63;;;6.90;99.90;;;;;;4997170;28;20220;-81
2023/01/09 06:49:32;;;;;;;0.70;0.70;;;7.00;99.90;;;;;;4996879;28;20590;-79
2023/01/09 06:51:58;;;;;;;1.40;0.60;;;6.80;99.90;;;;;;4996614;28;20201;-82
2023/01/09 06:54:23;;;;;;;0.60;0.60;;;6.60;99.90;;;;;;4997058;28;20183;-82
2023/01/09 06:56:49;;;;;;;1.13;1.00;;;6.50;99.90;;;;;;4996564;28;20263;-82
2023/01/09 06:59:14;;;;;;;0.80;0.80;;;6.40;99.90;;;;;;4996368;28;20177;-82
2023/01/09 07:01:40;;;;;;;1.07;1.00;;;6.40;99.90;;;;;;4997100;28;20213;-82
2023/01/09 07:04:07;;;;;;;1.00;0.80;;;6.30;99.90;;;;;;4996502;28;20206;-82
2023/01/09 07:06:32;;;;;;;1.03;0.93;;;6.30;99.90;;;;;;4987680;28;20268;-84
2023/01/09 07:08:58;;;;;;;1.30;1.03;;;6.30;99.90;;;;;;4995970;28;20206;-82
2023/01/09 07:11:24;;;;;;;1.30;1.20;;;6.20;99.90;;;;;;5013180;28;20178;-83
2023/01/09 07:13:49;;;;;;;1.37;1.27;;;6.10;99.90;;;;;;4996140;28;20554;-82
2023/01/09 07:16:15;;;;;;;1.40;1.30;;;6.10;99.90;;;;;;5013255;28;20182;-83
2023/01/09 07:18:40;;;;;;;1.80;1.50;;;6.10;99.90;;;;;;4995776;28;20583;-82
2023/01/09 07:21:06;;;;;;;1.93;1.50;;;6.10;99.90;;;;;;5013071;28;20213;-81
2023/01/09 07:23:32;;;;;;;2.60;1.37;;;6.10;99.90;;;;;;4995734;28;20196;-81
2023/01/09 07:25:58;;;;;;;1.90;1.70;;;6.10;99.90;;;;;;4995767;28;20276;-85
2023/01/09 07:28:24;;;;;;;2.00;1.63;;;6.10;99.90;;;;;;4995671;28;20181;-84
2023/01/09 07:30:50;;;;;;;2.10;1.90;;;6.10;99.90;;;;;;5013409;28;20228;-84
2023/01/09 07:33:15;;;;;;;2.17;1.97;;;6.10;99.90;;;;;;5013592;28;20266;-82
2023/01/09 07:35:41;;;;;;;2.80;1.87;;;6.00;99.90;;;;;;4996100;28;20189;-82
2023/01/09 07:38:06;;;;;;;2.50;1.73;;;6.10;99.90;;;;;;5013670;28;20216;-83
2023/01/09 07:40:32;;;;;;;1.47;1.33;;;6.00;99.90;;;;;;4995793;28;20268;-84
2023/01/09 07:42:58;;;;;;;3.37;1.80;;;6.00;99.90;;;;;;5013415;28;20204;-82
2023/01/09 07:45:23;;;;;;;1.50;1.40;;;6.00;99.90;;;;;;4987875;28;20202;-82
2023/01/09 07:47:51;;;;;;;1.70;1.40;;;5.90;99.90;;;;;;4997103;28;20185;-81
2023/01/09 07:50:17;;;;;;;2.50;1.40;;;5.90;99.90;;;;;;5013043;28;20200;-80
2023/01/09 07:52:46;;;;;;;1.83;1.20;;;6.00;99.90;;;;;;4995787;28;20667;-80
2023/01/09 07:55:12;;;;;;;1.77;1.30;;;6.00;99.90;;;;;;4995332;28;20172;-80
2023/01/09 07:57:38;;;;;;;4.60;1.97;;;6.00;99.90;;;;;;5013295;28;20604;-80
2023/01/09 08:00:05;;;;;;;1.90;1.60;;;6.00;99.90;;;;;;5013129;28;20178;-80
2023/01/09 08:02:32;;;;;;;1.73;1.30;;;6.00;99.90;;;;;;4995490;28;20216;-80
2023/01/09 08:04:57;;;;;;;2.17;1.33;;;6.00;99.90;;;;;;5013179;28;20177;-80
2023/01/09 08:07:23;;;;;;;1.53;1.30;;;6.00;99.90;;;;;;4995315;28;20206;-80
2023/01/09 08:09:49;;;;;;;1.63;1.40;;;6.00;99.90;;;;;;5012600;28;20195;-79
2023/01/09 08:12:14;;;;;;;1.13;1.03;;;6.10;99.90;;;;;;5013094;28;20187;-79
2023/01/09 08:14:40;;;;;;;1.90;1.10;;;6.10;99.90;;;;;;4995441;28;20192;-80
2023/01/09 08:17:05;;;;;;;1.30;1.10;;;6.10;99.90;;;;;;4995430;28;20277;-79
2023/01/09 08:19:31;;;;;;;2.07;1.00;;;6.20;99.90;;;;;;5012880;28;20213;-80
2023/01/09 08:21:56;;;;;;;2.77;1.20;;;6.20;99.90;;;;;;4995344;28;20196;-80
2023/01/09 08:24:22;;;;;;;2.33;1.10;;;6.20;99.90;;;;;;5012712;28;20187;-80
2023/01/09 08:26:47;;;;;;;3.53;1.30;;;6.20;99.90;;;;;;5012871;28;20181;-80
2023/01/09 08:29:13;;;;;;;1.77;1.17;;;6.20;99.90;;;;;;5011911;28;20707;-80
2023/01/09 08:31:39;;;;;;;2.47;1.13;;;6.20;99.90;;;;;;5007934;28;20195;-80
2023/01/09 08:34:05;;;;;;;1.37;1.10;;;6.20;99.90;;;;;;4981970;28;20182;-80
2023/01/09 08:36:30;;;;;;;1.57;1.10;;;6.20;99.90;;;;;;4991675;28;20188;-81
2023/01/09 08:38:56;;;;;;;2.70;1.30;;;6.20;99.90;;;;;;4975618;28;20174;-79
2023/01/09 08:47:05;;;;;;;2.43;1.30;;;6.10;99.90;;;;;;4992862;28;20180;-80
2023/01/09 08:49:31;;;;;;;3.60;1.37;;;6.10;99.90;;;;;;4992993;28;20205;-80
2023/01/09 08:51:56;;;;;;;2.40;1.13;;;6.00;99.90;;;;;;4992784;28;20668;-79
2023/01/09 08:54:22;;;;;;;1.93;1.13;;;6.00;99.90;;;;;;4975471;28;20256;-80
2023/01/09 08:56:48;;;;;;;4.30;1.23;;;6.00;99.90;;;;;;4975326;28;20247;-79
2023/01/09 08:59:15;;;;;;;1.60;1.30;;;6.00;99.90;;;;;;4992962;28;20181;-80
2023/01/09 09:01:40;;;;;;;1.97;1.10;;;6.10;99.90;;;;;;4975316;28;20234;-80
2023/01/09 09:04:06;;;;;;;1.50;1.40;;;6.00;99.90;;;;;;4993540;28;20208;-80
2023/01/09 09:06:33;;;;;;;3.53;1.20;;;6.10;99.90;;;;;;4992983;28;20170;-80
2023/01/09 09:09:02;;;;;;;2.13;1.13;;;6.00;99.90;;;;;;4975517;28;20181;-80
2023/01/09 09:11:32;;;;;;;2.17;1.10;;;6.00;99.90;;;;;;4975568;28;20267;-80
2023/01/09 09:13:58;;;;;;;2.87;1.30;;;6.00;99.90;;;;;;4993350;28;20269;-80
2023/01/09 09:16:25;;;;;;;1.10;1.00;;;6.00;99.90;;;;;;4975782;28;20188;-82
2023/01/09 09:18:50;;;;;;;2.70;1.50;;;5.90;99.90;;;;;;4992994;28;20182;-80
2023/01/09 09:21:16;;;;;;;3.13;1.30;;;5.90;99.90;;;;;;4993591;28;20235;-81
2023/01/09 09:23:43;;;;;;;1.97;1.57;;;5.90;99.90;;;;;;4993321;28;20177;-80
2023/01/09 09:26:09;;;;;;;2.90;1.90;;;5.90;99.90;;;;;;4976177;28;20184;-81
2023/01/09 09:28:35;;;;;;;2.47;1.80;;;5.90;99.90;;;;;;4975839;28;20185;-79
2023/01/09 09:31:04;;;;;;;2.90;1.50;;;5.90;99.90;;;;;;4992927;28;20215;-81
2023/01/09 09:33:30;;;;;;;1.87;1.70;;;5.90;99.90;;;;;;4975206;28;20204;-79
2023/01/09 09:35:57;;;;;;;2.10;1.63;;;5.90;99.90;;;;;;4993150;28;20642;-83
2023/01/09 09:38:23;;;;;;;2.53;1.53;;;5.90;99.90;;;;;;4994154;28;20264;-81
2023/01/09 09:44:42;;;;;;;3.27;1.50;;;6.00;99.90;;;;;;5007097;28;20618;-82
2023/01/09 09:47:32;;;;;;;2.50;1.40;;;6.00;99.90;;;;;;4996806;28;20187;-83
2023/01/09 09:50:30;;;;;;;2.07;1.60;;;6.00;99.90;;;;;;5009736;28;20267;-83
2023/01/09 09:53:29;;;;;;;2.07;1.37;;;6.00;99.90;;;;;;5015062;28;20616;-81
2023/01/09 09:55:56;;;;;;;1.30;1.00;;;6.00;99.90;;;;;;4995334;28;20192;-82
2023/01/09 09:58:31;;;;;;;2.53;1.10;;;6.00;99.90;;;;;;5015191;28;20184;-82
2023/01/09 10:00:58;;;;;;;1.30;1.20;;;5.90;99.90;;;;;;5013910;28;20179;-81
2023/01/09 10:03:34;;;;;;;2.50;1.40;;;5.90;99.90;;;;;;5013687;28;20216;-83
2023/01/09 10:06:06;;;;;;;2.03;1.30;;;5.90;99.90;;;;;;5009244;28;20206;-81
2023/01/09 10:09:05;;;;;;;3.20;1.40;;;5.90;99.90;;;;;;4996725;28;20191;-80
2023/01/09 10:11:46;;;;;;;3.53;1.80;;;5.90;99.90;;;;;;4996991;28;20292;-80
2023/01/09 10:14:12;;;;;;;2.53;1.60;;;5.90;99.90;;;;;;5014730;28;20202;-81
2023/01/09 10:17:05;;;;;;;2.53;1.67;;;5.90;99.90;;;;;;5014435;28;20647;-80
2023/01/09 10:19:35;;;;;;;2.53;1.40;;;6.00;99.90;;;;;;5014922;28;20182;-82
2023/01/09 10:22:21;;;;;;;3.73;1.70;;;6.00;99.90;;;;;;5014809;28;20189;-81
2023/01/09 10:24:52;;;;;;;6.47;3.30;;;6.00;99.90;;;;;;4963968;28;20203;-82
2023/01/09 10:27:45;;;;;;;23.90;10.07;;;6.10;99.90;;;;;;5014653;28;20177;-82
2023/01/09 10:30:47;;;;;;;5.77;3.00;;;6.90;99.90;;;;;;5013235;28;20310;-81
2023/01/09 10:33:46;;;;;;;2.83;1.60;;;7.00;99.90;;;;;;5013001;28;20200;-81
2023/01/09 10:36:45;;;;;;;3.10;1.53;;;6.70;99.90;;;;;;5013286;28;20181;-83
2023/01/09 10:39:27;;;;;;;2.17;1.60;;;6.50;99.90;;;;;;5012908;28;20181;-82
2023/01/09 10:42:03;;;;;;;5.43;1.80;;;6.30;99.90;;;;;;5012712;28;20449;-83
2023/01/09 10:44:38;;;;;;;3.83;1.70;;;6.30;99.90;;;;;;5011750;28;20241;-83
2023/01/09 10:47:24;;;;;;;4.97;1.70;;;6.20;99.90;;;;;;4996334;28;20187;-83
2023/01/09 10:49:51;;;;;;;3.53;1.70;;;6.20;99.90;;;;;;4990311;28;20201;-83
2023/01/09 10:52:19;;;;;;;2.73;1.50;;;6.20;99.90;;;;;;5012712;28;20199;-83
2023/01/09 10:54:53;;;;;;;2.47;1.60;;;6.20;99.90;;;;;;4996502;28;20224;-83
2023/01/09 10:57:41;;;;;;;2.67;1.60;;;6.10;99.90;;;;;;5014172;28;20176;-83
2023/01/09 11:00:14;;;;;;;2.57;1.73;;;6.10;99.90;;;;;;4995735;28;20210;-83
2023/01/09 11:02:41;;;;;;;1.60;1.40;;;6.10;99.90;;;;;;5013818;28;20244;-85
2023/01/09 11:05:16;;;;;;;2.00;1.43;;;6.20;99.90;;;;;;5013780;28;20179;-87
2023/01/09 11:07:45;;;;;;;2.43;1.60;;;6.30;99.90;;;;;;4996462;28;20246;-87
2023/01/09 11:10:12;;;;;;;1.53;1.10;;;6.30;99.90;;;;;;4995611;28;20236;-87
2023/01/09 11:12:38;;;;;;;5.77;3.40;;;6.30;99.90;;;;;;5013554;28;20234;-85
2023/01/09 11:15:19;;;;;;;3.70;1.43;;;6.50;99.90;;;;;;5013273;28;20231;-83
2023/01/09 11:17:50;;;;;;;4.33;1.60;;;6.90;99.90;;;;;;5013476;28;20235;-83
2023/01/09 11:20:27;;;;;;;3.07;1.53;;;7.20;99.90;;;;;;4998418;28;20181;-84
2023/01/09 11:22:55;;;;;;;2.07;1.10;;;7.20;99.90;;;;;;4999251;28;20206;-82
2023/01/09 11:25:28;;;;;;;2.13;1.20;;;7.20;99.90;;;;;;5016287;28;20181;-84
2023/01/09 11:28:03;;;;;;;3.60;2.17;;;7.30;99.90;;;;;;5013494;28;20189;-87
2023/01/09 11:30:30;;;;;;;23.63;10.70;;;7.40;99.90;;;;;;4995466;28;20205;-86
2023/01/09 11:32:57;;;;;;;3.27;1.60;;;7.50;99.90;;;;;;5013148;28;20196;-85
2023/01/09 11:35:30;;;;;;;1.97;1.20;;;7.30;99.90;;;;;;4995618;28;20177;-85
2023/01/09 11:38:16;;;;;;;1.20;0.93;;;7.50;99.90;;;;;;4995757;28;20178;-83
2023/01/09 11:40:48;;;;;;;1.90;1.00;;;7.10;99.90;;;;;;5013590;28;20549;-83
2023/01/09 11:43:33;;;;;;;1.83;1.20;;;6.90;99.90;;;;;;4996484;28;20660;-83
2023/01/09 11:46:03;;;;;;;1.70;1.17;;;6.70;99.90;;;;;;5013193;28;20186;-83
2023/01/09 11:48:53;;;;;;;1.10;1.00;;;6.60;99.90;;;;;;5012831;28;20262;-83
2023/01/09 11:51:22;;;;;;;1.40;1.30;;;6.60;99.90;;;;;;5012949;28;20295;-83
2023/01/09 11:54:08;;;;;;;1.83;1.57;;;6.50;99.90;;;;;;4995542;28;20182;-83
2023/01/09 11:56:35;;;;;;;3.07;1.73;;;6.60;99.90;;;;;;4992741;28;20591;-83
2023/01/09 11:59:01;;;;;;;1.43;1.00;;;6.60;99.90;;;;;;4986883;28;20179;-83
2023/01/09 12:01:36;;;;;;;2.03;1.00;;;6.60;99.90;;;;;;4994806;28;20643;-83
2023/01/09 12:04:02;;;;;;;2.73;1.20;;;6.60;99.90;;;;;;5004497;28;20256;-83
2023/01/09 12:06:52;;;;;;;2.07;1.33;;;6.60;99.90;;;;;;4992575;28;20181;-83
2023/01/09 12:09:58;;;;;;;1.70;1.40;;;6.60;99.90;;;;;;4992868;28;20641;-83
2023/01/09 12:12:49;;;;;;;1.93;1.10;;;6.60;99.90;;;;;;4944605;28;20206;-83
2023/01/09 12:15:56;;;;;;;1.03;1.03;;;6.70;99.90;;;;;;4975563;28;20269;-83
2023/01/09 12:18:28;;;;;;;2.20;1.07;;;6.80;99.90;;;;;;4969924;28;20190;-83
2023/01/09 12:21:20;;;;;;;1.63;1.30;;;6.80;99.90;;;;;;4994819;28;20182;-83
2023/01/09 12:23:58;;;;;;;2.30;1.73;;;6.80;99.90;;;;;;5005043;28;20189;-83
2023/01/09 12:26:31;;;;;;;2.13;1.17;;;6.80;99.90;;;;;;4991181;28;20192;-83
2023/01/09 12:29:15;;;;;;;4.13;1.60;;;6.80;99.90;;;;;;4985973;28;20194;-82
2023/01/09 12:32:02;;;;;;;2.53;2.00;;;6.80;99.90;;;;;;5017670;28;20224;-82
2023/01/09 12:34:59;;;;;;;3.27;2.80;;;6.80;99.90;;;;;;4997328;28;20225;-83
2023/01/09 12:38:06;;;;;;;2.67;1.80;;;6.80;99.90;;;;;;4980558;28;20190;-82
2023/01/09 12:40:50;;;;;;;2.20;1.50;;;6.70;99.90;;;;;;4981839;28;20205;-82
2023/01/09 12:43:34;;;;;;;2.53;1.47;;;6.70;99.90;;;;;;4993784;28;20206;-83
2023/01/09 12:46:03;;;;;;;1.97;1.50;;;6.70;99.90;;;;;;4999428;28;20173;-83
2023/01/09 12:48:42;;;;;;;2.47;1.20;;;6.70;99.90;;;;;;5013245;28;20186;-83
2023/01/09 12:51:22;;;;;;;2.97;1.97;;;6.70;99.90;;;;;;5012693;28;20347;-84
2023/01/09 12:54:11;;;;;;;1.03;0.80;;;6.70;99.90;;;;;;4996722;28;20208;-83
2023/01/09 12:56:41;;;;;;;1.67;1.10;;;6.80;99.90;;;;;;5013229;28;20181;-83
2023/01/09 12:59:16;;;;;;;2.90;1.80;;;6.80;99.90;;;;;;4995009;28;20676;-82
2023/01/09 13:04:29;;;;;;;3.80;1.10;;;6.90;99.90;;;;;;4971054;28;20208;-81
2023/01/09 13:07:02;;;;;;;1.53;1.20;;;6.90;99.90;;;;;;4988413;28;20186;-79
2023/01/09 13:09:45;;;;;;;3.40;1.50;;;6.90;99.90;;;;;;4973810;28;20199;-79
2023/01/09 13:12:17;;;;;;;1.50;1.20;;;6.90;99.90;;;;;;4984128;28;20247;-79
2023/01/09 13:14:51;;;;;;;4.77;2.40;;;6.90;99.90;;;;;;4953198;28;20605;-79
2023/01/09 13:17:42;;;;;;;2.60;1.57;;;6.90;99.90;;;;;;4956787;29;20266;-79
2023/01/09 13:20:21;;;;;;;3.50;2.00;;;6.90;99.90;;;;;;4957716;28;20632;-78
2023/01/09 13:22:49;;;;;;;2.60;2.30;;;6.90;99.90;;;;;;4950510;29;20207;-79
2023/01/09 13:25:32;;;;;;;2.63;1.40;;;6.80;99.90;;;;;;4948404;29;20185;-79
2023/01/09 13:28:21;;;;;;;1.50;1.40;;;6.80;99.90;;;;;;4954716;28;20247;-80
2023/01/09 13:31:00;;;;;;;1.90;1.50;;;6.70;99.90;;;;;;4952685;29;20242;-79
2023/01/09 13:33:29;;;;;;;1.30;1.00;;;6.70;99.90;;;;;;4951328;29;20212;-79